sensor_id;sensor_type;location;lat;lon;timestamp;pressure;altitude;pressure_sealevel;temperature;humidity
69318;BME280;56457;52.190;4.440;2023-04-08T00:00:12;102469.22;;;9.07;100.00
69318;BME280;56457;52.190;4.440;2023-04-08T00:01:12;102465.78;;;9.09;100.00
69318;BME280;56457;52.190;4.440;2023-04-08T00:02:13;102470.19;;;9.12;100.00
69318;BME280;56457;52.190;4.440;2023-04-08T00:03:14;102468.41;;;9.09;100.00
69318;BME280;56457;52.190;4.440;2023-04-08T00:04:15;102465.69;;;9.06;100.00
69318;BME280;56457;52.190;4.440;2023-04-08T00:05:15;102474.38;;;9.04;100.00
69318;BME280;56457;52.190;4.440;2023-04-08T00:06:16;102471.78;;;9.05;100.00
69318;BME280;56457;52.190;4.440;2023-04-08T00:07:16;102471.00;;;9.08;100.00
69318;BME280;56457;52.190;4.440;2023-04-08T00:08:16;102471.03;;;9.09;100.00
69318;BME280;56457;52.190;4.440;2023-04-08T00:09:17;102477.13;;;9.10;100.00
69318;BME280;56457;52.190;4.440;2023-04-08T00:10:17;102477.22;;;9.13;100.00
69318;BME280;56457;52.190;4.440;2023-04-08T00:11:18;102471.88;;;9.08;100.00
69318;BME280;56457;52.190;4.440;2023-04-08T00:12:18;102477.88;;;9.04;100.00
69318;BME280;56457;52.190;4.440;2023-04-08T00:13:19;102473.53;;;9.06;100.00
69318;BME280;56457;52.190;4.440;2023-04-08T00:14:19;102478.03;;;9.10;100.00
69318;BME280;56457;52.190;4.440;2023-04-08T00:15:19;102478.91;;;9.11;100.00
69318;BME280;56457;52.190;4.440;2023-04-08T00:16:20;102469.38;;;9.13;100.00
69318;BME280;56457;52.190;4.440;2023-04-08T00:17:21;102477.25;;;9.14;100.00
69318;BME280;56457;52.190;4.440;2023-04-08T00:18:22;102476.38;;;9.14;100.00
69318;BME280;56457;52.190;4.440;2023-04-08T00:19:22;102474.69;;;9.17;100.00
69318;BME280;56457;52.190;4.440;2023-04-08T00:20:23;102477.34;;;9.19;100.00
69318;BME280;56457;52.190;4.440;2023-04-08T00:21:23;102468.56;;;9.15;100.00
69318;BME280;56457;52.190;4.440;2023-04-08T00:22:23;102463.34;;;9.17;100.00
69318;BME280;56457;52.190;4.440;2023-04-08T00:23:25;102473.81;;;9.17;100.00
69318;BME280;56457;52.190;4.440;2023-04-08T00:24:25;102467.69;;;9.16;100.00
69318;BME280;56457;52.190;4.440;2023-04-08T00:25:25;102475.44;;;9.12;100.00
69318;BME280;56457;52.190;4.440;2023-04-08T00:26:26;102478.94;;;9.12;100.00
69318;BME280;56457;52.190;4.440;2023-04-08T00:27:26;102471.94;;;9.11;100.00
69318;BME280;56457;52.190;4.440;2023-04-08T00:28:26;102464.94;;;9.10;100.00
69318;BME280;56457;52.190;4.440;2023-04-08T00:29:27;102470.13;;;9.09;100.00
69318;BME280;56457;52.190;4.440;2023-04-08T00:30:28;102477.09;;;9.08;100.00
69318;BME280;56457;52.190;4.440;2023-04-08T00:31:28;102468.31;;;9.06;100.00
69318;BME280;56457;52.190;4.440;2023-04-08T00:32:29;102476.22;;;9.08;100.00
69318;BME280;56457;52.190;4.440;2023-04-08T00:33:29;102471.84;;;9.07;100.00
69318;BME280;56457;52.190;4.440;2023-04-08T00:34:30;102477.97;;;9.07;100.00
69318;BME280;56457;52.190;4.440;2023-04-08T00:35:30;102476.16;;;9.06;100.00
69318;BME280;56457;52.190;4.440;2023-04-08T00:36:30;102478.78;;;9.06;100.00
69318;BME280;56457;52.190;4.440;2023-04-08T00:37:31;102475.28;;;9.06;100.00
69318;BME280;56457;52.190;4.440;2023-04-08T00:38:31;102479.69;;;9.07;100.00
69318;BME280;56457;52.190;4.440;2023-04-08T00:39:32;102477.97;;;9.07;100.00
69318;BME280;56457;52.190;4.440;2023-04-08T00:40:33;102480.47;;;9.03;100.00
69318;BME280;56457;52.190;4.440;2023-04-08T00:41:33;102477.75;;;9.00;100.00
69318;BME280;56457;52.190;4.440;2023-04-08T00:42:35;102482.97;;;9.00;100.00
69318;BME280;56457;52.190;4.440;2023-04-08T00:43:35;102487.44;;;9.02;100.00
69318;BME280;56457;52.190;4.440;2023-04-08T00:44:36;102491.81;;;9.03;100.00
69318;BME280;56457;52.190;4.440;2023-04-08T00:45:36;102487.41;;;9.01;100.00
69318;BME280;56457;52.190;4.440;2023-04-08T00:46:37;102487.41;;;9.01;100.00
69318;BME280;56457;52.190;4.440;2023-04-08T00:47:38;102490.84;;;9.00;100.00
69318;BME280;56457;52.190;4.440;2023-04-08T00:48:38;102486.47;;;8.99;100.00
69318;BME280;56457;52.190;4.440;2023-04-08T00:49:39;102484.78;;;9.01;100.00
69318;BME280;56457;52.190;4.440;2023-04-08T00:50:41;102499.63;;;9.02;100.00
69318;BME280;56457;52.190;4.440;2023-04-08T00:51:42;102491.81;;;9.03;100.00
69318;BME280;56457;52.190;4.440;2023-04-08T00:52:42;102483.94;;;9.02;100.00
69318;BME280;56457;52.190;4.440;2023-04-08T00:53:43;102494.47;;;9.05;100.00
69318;BME280;56457;52.190;4.440;2023-04-08T00:54:43;102495.41;;;9.07;100.00
69318;BME280;56457;52.190;4.440;2023-04-08T00:55:44;102487.50;;;9.05;100.00
69318;BME280;56457;52.190;4.440;2023-04-08T00:56:44;102484.03;;;9.06;100.00
69318;BME280;56457;52.190;4.440;2023-04-08T00:57:45;102479.72;;;9.08;100.00
69318;BME280;56457;52.190;4.440;2023-04-08T00:58:45;102488.38;;;9.06;100.00
69318;BME280;56457;52.190;4.440;2023-04-08T00:59:46;102493.56;;;9.04;100.00
69318;BME280;56457;52.190;4.440;2023-04-08T01:00:49;102495.19;;;8.99;100.00
69318;BME280;56457;52.190;4.440;2023-04-08T01:04:12;102488.19;;;8.98;100.00
69318;BME280;56457;52.190;4.440;2023-04-08T01:05:19;102495.19;;;8.99;100.00
69318;BME280;56457;52.190;4.440;2023-04-08T01:06:29;102494.31;;;8.99;100.00
69318;BME280;56457;52.190;4.440;2023-04-08T01:07:32;102490.84;;;9.00;100.00
69318;BME280;56457;52.190;4.440;2023-04-08T01:08:33;102489.94;;;8.98;100.00
69318;BME280;56457;52.190;4.440;2023-04-08T01:09:37;102491.69;;;8.99;100.00
69318;BME280;56457;52.190;4.440;2023-04-08T01:10:38;102489.00;;;8.96;100.00
69318;BME280;56457;52.190;4.440;2023-04-08T01:11:42;102489.06;;;8.99;100.00
69318;BME280;56457;52.190;4.440;2023-04-08T01:12:47;102496.97;;;9.00;100.00
69318;BME280;56457;52.190;4.440;2023-04-08T01:13:48;102490.91;;;9.01;100.00
69318;BME280;56457;52.190;4.440;2023-04-08T01:14:51;102492.66;;;9.02;100.00
69318;BME280;56457;52.190;4.440;2023-04-08T01:15:53;102487.47;;;9.04;100.00
69318;BME280;56457;52.190;4.440;2023-04-08T01:16:54;102495.28;;;9.02;100.00
69318;BME280;56457;52.190;4.440;2023-04-08T01:17:56;102497.09;;;9.05;100.00
69318;BME280;56457;52.190;4.440;2023-04-08T01:18:57;102493.56;;;9.04;100.00
69318;BME280;56457;52.190;4.440;2023-04-08T01:19:59;102490.06;;;9.02;100.00
69318;BME280;56457;52.190;4.440;2023-04-08T01:21:00;102497.09;;;9.06;100.00
69318;BME280;56457;52.190;4.440;2023-04-08T01:22:04;102498.91;;;9.07;100.00
69318;BME280;56457;52.190;4.440;2023-04-08T01:24:08;102497.19;;;9.09;100.00
69318;BME280;56457;52.190;4.440;2023-04-08T01:25:17;102493.72;;;9.10;100.00
69318;BME280;56457;52.190;4.440;2023-04-08T01:26:19;102489.34;;;9.09;100.00
69318;BME280;56457;52.190;4.440;2023-04-08T01:27:21;102488.44;;;9.07;100.00
69318;BME280;56457;52.190;4.440;2023-04-08T01:28:22;102488.38;;;9.06;100.00
69318;BME280;56457;52.190;4.440;2023-04-08T01:29:23;102487.47;;;9.04;100.00
69318;BME280;56457;52.190;4.440;2023-04-08T01:30:25;102484.00;;;9.05;100.00
69318;BME280;56457;52.190;4.440;2023-04-08T01:31:27;102483.94;;;9.02;100.00
69318;BME280;56457;52.190;4.440;2023-04-08T01:32:29;102490.06;;;9.02;100.00
69318;BME280;56457;52.190;4.440;2023-04-08T01:33:31;102489.94;;;8.99;100.00
69318;BME280;56457;52.190;4.440;2023-04-08T01:34:31;102489.91;;;8.96;100.00
69318;BME280;56457;52.190;4.440;2023-04-08T01:35:33;102489.81;;;8.93;100.00
69318;BME280;56457;52.190;4.440;2023-04-08T01:36:34;102490.69;;;8.94;100.00
69318;BME280;56457;52.190;4.440;2023-04-08T01:37:36;102488.03;;;8.92;100.00
69318;BME280;56457;52.190;4.440;2023-04-08T01:38:37;102490.81;;;8.98;100.00
69318;BME280;56457;52.190;4.440;2023-04-08T01:39:38;102489.03;;;8.97;100.00
69318;BME280;56457;52.190;4.440;2023-04-08T01:40:40;102496.06;;;9.00;100.00
69318;BME280;56457;52.190;4.440;2023-04-08T01:41:41;102487.44;;;9.02;100.00
69318;BME280;56457;52.190;4.440;2023-04-08T01:42:42;102499.56;;;9.00;100.00
69318;BME280;56457;52.190;4.440;2023-04-08T01:43:42;102496.16;;;9.03;100.00
69318;BME280;56457;52.190;4.440;2023-04-08T01:44:43;102498.03;;;9.07;100.00
69318;BME280;56457;52.190;4.440;2023-04-08T01:45:45;102505.03;;;9.08;100.00
69318;BME280;56457;52.190;4.440;2023-04-08T01:46:46;102493.66;;;9.07;100.00
69318;BME280;56457;52.190;4.440;2023-04-08T01:47:47;102490.19;;;9.08;100.00
69318;BME280;56457;52.190;4.440;2023-04-08T01:48:48;102491.88;;;9.06;100.00
69318;BME280;56457;52.190;4.440;2023-04-08T01:49:49;102491.84;;;9.05;100.00
69318;BME280;56457;52.190;4.440;2023-04-08T01:50:51;102491.72;;;9.00;100.00
69318;BME280;56457;52.190;4.440;2023-04-08T01:51:52;102492.50;;;8.96;100.00
69318;BME280;56457;52.190;4.440;2023-04-08T01:52:52;102496.00;;;8.97;100.00
69318;BME280;56457;52.190;4.440;2023-04-08T01:53:53;102492.47;;;8.95;100.00
69318;BME280;56457;52.190;4.440;2023-04-08T01:54:54;102500.38;;;8.96;100.00
69318;BME280;56457;52.190;4.440;2023-04-08T01:55:56;102496.78;;;8.93;100.00
69318;BME280;56457;52.190;4.440;2023-04-08T01:56:57;102499.34;;;8.91;100.00
69318;BME280;56457;52.190;4.440;2023-04-08T01:57:59;102501.06;;;8.89;100.00
69318;BME280;56457;52.190;4.440;2023-04-08T01:59:00;102495.75;;;8.87;100.00
69318;BME280;56457;52.190;4.440;2023-04-08T02:00:05;102503.56;;;8.84;100.00
69318;BME280;56457;52.190;4.440;2023-04-08T02:01:09;102503.53;;;8.83;100.00
69318;BME280;56457;52.190;4.440;2023-04-08T02:02:10;102499.06;;;8.80;100.00
69318;BME280;56457;52.190;4.440;2023-04-08T02:03:11;102502.56;;;8.81;100.00
69318;BME280;56457;52.190;4.440;2023-04-08T02:04:12;102503.44;;;8.80;100.00
69318;BME280;56457;52.190;4.440;2023-04-08T02:05:12;102506.00;;;8.78;100.00
69318;BME280;56457;52.190;4.440;2023-04-08T02:06:13;102501.66;;;8.79;100.00
69318;BME280;56457;52.190;4.440;2023-04-08T02:07:13;102502.50;;;8.78;100.00
69318;BME280;56457;52.190;4.440;2023-04-08T02:08:13;102496.38;;;8.76;100.00
69318;BME280;56457;52.190;4.440;2023-04-08T02:09:14;102501.59;;;8.76;100.00
69318;BME280;56457;52.190;4.440;2023-04-08T02:10:14;102498.13;;;8.77;100.00
69318;BME280;56457;52.190;4.440;2023-04-08T02:11:15;102498.88;;;8.73;100.00
69318;BME280;56457;52.190;4.440;2023-04-08T02:12:15;102504.88;;;8.69;100.00
69318;BME280;56457;52.190;4.440;2023-04-08T02:13:16;102501.34;;;8.67;100.00
69318;BME280;56457;52.190;4.440;2023-04-08T02:14:16;102504.81;;;8.66;100.00
69318;BME280;56457;52.190;4.440;2023-04-08T02:15:17;102506.56;;;8.67;100.00
69318;BME280;56457;52.190;4.440;2023-04-08T02:17:24;102504.94;;;8.70;100.00
69318;BME280;56457;52.190;4.440;2023-04-08T02:18:27;102501.47;;;8.71;100.00
69318;BME280;56457;52.190;4.440;2023-04-08T02:20:33;102503.19;;;8.71;100.00
69318;BME280;56457;52.190;4.440;2023-04-08T02:21:46;102506.66;;;8.70;100.00
69318;BME280;56457;52.190;4.440;2023-04-08T02:22:55;102511.00;;;8.69;100.00
69318;BME280;56457;52.190;4.440;2023-04-08T02:23:57;102512.78;;;8.70;100.00
69318;BME280;56457;52.190;4.440;2023-04-08T02:24:58;102507.56;;;8.70;100.00
69318;BME280;56457;52.190;4.440;2023-04-08T02:26:00;102507.50;;;8.69;100.00
69318;BME280;56457;52.190;4.440;2023-04-08T02:27:02;102509.34;;;8.73;100.00
69318;BME280;56457;52.190;4.440;2023-04-08T02:28:07;102510.16;;;8.70;100.00
69318;BME280;56457;52.190;4.440;2023-04-08T02:29:10;102509.31;;;8.71;100.00
69318;BME280;56457;52.190;4.440;2023-04-08T02:30:11;102517.22;;;8.74;100.00
69318;BME280;56457;52.190;4.440;2023-04-08T02:31:12;102515.63;;;8.79;100.00
69318;BME280;56457;52.190;4.440;2023-04-08T02:32:14;102507.78;;;8.79;100.00
69318;BME280;56457;52.190;4.440;2023-04-08T02:33:16;102507.78;;;8.79;100.00
69318;BME280;56457;52.190;4.440;2023-04-08T02:34:18;102513.84;;;8.77;100.00
69318;BME280;56457;52.190;4.440;2023-04-08T02:35:20;102510.25;;;8.75;100.00
69318;BME280;56457;52.190;4.440;2023-04-08T02:36:21;102511.16;;;8.75;100.00
69318;BME280;56457;52.190;4.440;2023-04-08T02:37:22;102507.66;;;8.75;100.00
69318;BME280;56457;52.190;4.440;2023-04-08T02:38:22;102506.91;;;8.79;100.00
69318;BME280;56457;52.190;4.440;2023-04-08T02:39:29;102513.09;;;8.82;100.00
69318;BME280;56457;52.190;4.440;2023-04-08T02:40:31;102511.22;;;8.77;100.00
69318;BME280;56457;52.190;4.440;2023-04-08T02:41:31;102513.72;;;8.74;100.00
69318;BME280;56457;52.190;4.440;2023-04-08T02:42:32;102513.72;;;8.74;100.00
69318;BME280;56457;52.190;4.440;2023-04-08T02:43:32;102517.31;;;8.76;100.00
69318;BME280;56457;52.190;4.440;2023-04-08T02:44:33;102521.72;;;8.78;100.00
69318;BME280;56457;52.190;4.440;2023-04-08T02:45:42;102523.50;;;8.81;100.00
69318;BME280;56457;52.190;4.440;2023-04-08T02:46:43;102517.53;;;8.85;100.00
69318;BME280;56457;52.190;4.440;2023-04-08T02:47:43;102517.56;;;8.86;100.00
69318;BME280;56457;52.190;4.440;2023-04-08T02:48:44;102514.00;;;8.83;100.00
69318;BME280;56457;52.190;4.440;2023-04-08T02:49:44;102517.44;;;8.82;100.00
69318;BME280;56457;52.190;4.440;2023-04-08T02:50:45;102517.38;;;8.79;100.00
69318;BME280;56457;52.190;4.440;2023-04-08T02:51:45;102514.72;;;8.77;100.00
69318;BME280;56457;52.190;4.440;2023-04-08T02:52:46;102517.38;;;8.79;100.00
69318;BME280;56457;52.190;4.440;2023-04-08T02:53:46;102520.84;;;8.78;100.00
69318;BME280;56457;52.190;4.440;2023-04-08T02:54:46;102511.16;;;8.75;100.00
69318;BME280;56457;52.190;4.440;2023-04-08T02:55:47;102518.09;;;8.73;100.00
69318;BME280;56457;52.190;4.440;2023-04-08T02:56:47;102520.69;;;8.73;100.00
69318;BME280;56457;52.190;4.440;2023-04-08T02:57:48;102518.97;;;8.74;100.00
69318;BME280;56457;52.190;4.440;2023-04-08T02:58:48;102517.22;;;8.74;100.00
69318;BME280;56457;52.190;4.440;2023-04-08T02:59:51;102522.44;;;8.73;100.00
69318;BME280;56457;52.190;4.440;2023-04-08T03:00:51;102523.28;;;8.72;100.00
69318;BME280;56457;52.190;4.440;2023-04-08T03:01:51;102520.63;;;8.70;100.00
69318;BME280;56457;52.190;4.440;2023-04-08T03:02:52;102522.31;;;8.68;100.00
69318;BME280;56457;52.190;4.440;2023-04-08T03:03:52;102525.75;;;8.66;100.00
69318;BME280;56457;52.190;4.440;2023-04-08T03:04:53;102525.72;;;8.64;100.00
69318;BME280;56457;52.190;4.440;2023-04-08T03:05:53;102527.34;;;8.60;100.00
69318;BME280;56457;52.190;4.440;2023-04-08T03:06:54;102520.31;;;8.58;100.00
69318;BME280;56457;52.190;4.440;2023-04-08T03:07:55;102518.50;;;8.57;100.00
69318;BME280;56457;52.190;4.440;2023-04-08T03:08:55;102521.94;;;8.54;100.00
69318;BME280;56457;52.190;4.440;2023-04-08T03:09:56;102528.03;;;8.53;100.00
69318;BME280;56457;52.190;4.440;2023-04-08T03:10:56;102538.44;;;8.52;100.00
69318;BME280;56457;52.190;4.440;2023-04-08T03:11:56;102528.00;;;8.52;100.00
69318;BME280;56457;52.190;4.440;2023-04-08T03:12:57;102524.50;;;8.51;100.00
69318;BME280;56457;52.190;4.440;2023-04-08T03:13:57;102520.00;;;8.47;100.00
69318;BME280;56457;52.190;4.440;2023-04-08T03:14:58;102531.22;;;8.43;100.00
69318;BME280;56457;52.190;4.440;2023-04-08T03:15:58;102535.59;;;8.44;100.00
69318;BME280;56457;52.190;4.440;2023-04-08T03:16:58;102530.44;;;8.46;100.00
69318;BME280;56457;52.190;4.440;2023-04-08T03:17:59;102532.22;;;8.48;100.00
69318;BME280;56457;52.190;4.440;2023-04-08T03:18:59;102524.38;;;8.48;100.00
69318;BME280;56457;52.190;4.440;2023-04-08T03:20:00;102533.97;;;8.48;100.00
69318;BME280;56457;52.190;4.440;2023-04-08T03:21:00;102528.66;;;8.45;100.00
69318;BME280;56457;52.190;4.440;2023-04-08T03:22:02;102525.06;;;8.41;100.00
69318;BME280;56457;52.190;4.440;2023-04-08T03:23:02;102532.81;;;8.38;100.00
69318;BME280;56457;52.190;4.440;2023-04-08T03:24:03;102527.53;;;8.36;100.00
69318;BME280;56457;52.190;4.440;2023-04-08T03:25:03;102531.03;;;8.37;100.00
69318;BME280;56457;52.190;4.440;2023-04-08T03:26:04;102532.00;;;8.39;100.00
69318;BME280;56457;52.190;4.440;2023-04-08T03:27:04;102531.88;;;8.36;100.00
69318;BME280;56457;52.190;4.440;2023-04-08T03:28:04;102531.88;;;8.36;100.00
69318;BME280;56457;52.190;4.440;2023-04-08T03:29:05;102537.91;;;8.33;100.00
69318;BME280;56457;52.190;4.440;2023-04-08T03:30:06;102530.06;;;8.33;100.00
69318;BME280;56457;52.190;4.440;2023-04-08T03:31:06;102533.44;;;8.31;100.00
69318;BME280;56457;52.190;4.440;2023-04-08T03:32:07;102534.28;;;8.30;100.00
69318;BME280;56457;52.190;4.440;2023-04-08T03:33:07;102537.78;;;8.30;100.00
69318;BME280;56457;52.190;4.440;2023-04-08T03:34:08;102535.13;;;8.27;100.00
69318;BME280;56457;52.190;4.440;2023-04-08T03:35:08;102541.03;;;8.22;100.00
69318;BME280;56457;52.190;4.440;2023-04-08T03:36:08;102540.19;;;8.23;100.00
69318;BME280;56457;52.190;4.440;2023-04-08T03:37:09;102541.97;;;8.24;100.00
69318;BME280;56457;52.190;4.440;2023-04-08T03:38:09;102544.38;;;8.16;100.00
69318;BME280;56457;52.190;4.440;2023-04-08T03:39:10;102546.09;;;8.16;100.00
69318;BME280;56457;52.190;4.440;2023-04-08T03:40:10;102544.22;;;8.12;100.00
69318;BME280;56457;52.190;4.440;2023-04-08T03:41:11;102545.06;;;8.10;100.00
69318;BME280;56457;52.190;4.440;2023-04-08T03:42:11;102552.91;;;8.10;100.00
69318;BME280;56457;52.190;4.440;2023-04-08T03:43:12;102550.22;;;8.07;100.00
69318;BME280;56457;52.190;4.440;2023-04-08T03:44:14;102553.66;;;8.06;100.00
69318;BME280;56457;52.190;4.440;2023-04-08T03:45:15;102551.84;;;8.04;100.00
69318;BME280;56457;52.190;4.440;2023-04-08T03:46:15;102553.56;;;8.03;100.00
69318;BME280;56457;52.190;4.440;2023-04-08T03:47:16;102552.69;;;8.03;100.00
69318;BME280;56457;52.190;4.440;2023-04-08T03:48:16;102553.56;;;8.03;100.00
69318;BME280;56457;52.190;4.440;2023-04-08T03:49:16;102553.47;;;8.00;100.00
69318;BME280;56457;52.190;4.440;2023-04-08T03:50:17;102558.63;;;7.97;100.00
69318;BME280;56457;52.190;4.440;2023-04-08T03:51:17;102565.47;;;7.94;100.00
69318;BME280;56457;52.190;4.440;2023-04-08T03:52:17;102555.91;;;7.94;100.00
69318;BME280;56457;52.190;4.440;2023-04-08T03:53:18;102565.53;;;7.95;100.00
69318;BME280;56457;52.190;4.440;2023-04-08T03:54:18;102568.19;;;7.97;100.00
69318;BME280;56457;52.190;4.440;2023-04-08T03:55:19;102558.59;;;7.96;100.00
69318;BME280;56457;52.190;4.440;2023-04-08T03:56:19;102554.97;;;7.92;100.00
69318;BME280;56457;52.190;4.440;2023-04-08T03:57:20;102553.97;;;7.89;100.00
69318;BME280;56457;52.190;4.440;2023-04-08T03:58:21;102561.75;;;7.86;100.00
69318;BME280;56457;52.190;4.440;2023-04-08T03:59:21;102563.44;;;7.83;100.00
69318;BME280;56457;52.190;4.440;2023-04-08T04:00:22;102565.16;;;7.83;100.00
69318;BME280;56457;52.190;4.440;2023-04-08T04:01:22;102562.56;;;7.83;100.00
69318;BME280;56457;52.190;4.440;2023-04-08T04:02:23;102571.13;;;7.79;100.00
69318;BME280;56457;52.190;4.440;2023-04-08T04:03:23;102563.16;;;7.76;100.00
69318;BME280;56457;52.190;4.440;2023-04-08T04:04:23;102560.53;;;7.74;100.00
69318;BME280;56457;52.190;4.440;2023-04-08T04:05:24;102558.72;;;7.72;100.00
69318;BME280;56457;52.190;4.440;2023-04-08T04:06:24;102563.91;;;7.70;100.00
69318;BME280;56457;52.190;4.440;2023-04-08T04:07:25;102564.72;;;7.69;100.00
69318;BME280;56457;52.190;4.440;2023-04-08T04:08:26;102565.47;;;7.65;100.00
69318;BME280;56457;52.190;4.440;2023-04-08T04:09:26;102571.63;;;7.67;100.00
69318;BME280;56457;52.190;4.440;2023-04-08T04:10:26;102570.72;;;7.67;100.00
69318;BME280;56457;52.190;4.440;2023-04-08T04:11:27;102563.78;;;7.67;100.00
69318;BME280;56457;52.190;4.440;2023-04-08T04:12:27;102569.81;;;7.65;100.00
69318;BME280;56457;52.190;4.440;2023-04-08T04:13:28;102569.81;;;7.65;100.00
69318;BME280;56457;52.190;4.440;2023-04-08T04:14:28;102572.34;;;7.63;100.00
69318;BME280;56457;52.190;4.440;2023-04-08T04:15:28;102563.56;;;7.60;100.00
69318;BME280;56457;52.190;4.440;2023-04-08T04:16:29;102572.13;;;7.55;100.00
69318;BME280;56457;52.190;4.440;2023-04-08T04:17:29;102571.28;;;7.56;100.00
69318;BME280;56457;52.190;4.440;2023-04-08T04:18:30;102572.94;;;7.54;100.00
69318;BME280;56457;52.190;4.440;2023-04-08T04:19:30;102573.81;;;7.53;100.00
69318;BME280;56457;52.190;4.440;2023-04-08T04:20:31;102575.53;;;7.53;100.00
69318;BME280;56457;52.190;4.440;2023-04-08T04:21:31;102578.06;;;7.51;100.00
69318;BME280;56457;52.190;4.440;2023-04-08T04:22:32;102583.25;;;7.50;100.00
69318;BME280;56457;52.190;4.440;2023-04-08T04:23:32;102577.13;;;7.49;100.00
69318;BME280;56457;52.190;4.440;2023-04-08T04:24:32;102587.50;;;7.46;100.00
69318;BME280;56457;52.190;4.440;2023-04-08T04:25:33;102581.28;;;7.43;100.00
69318;BME280;56457;52.190;4.440;2023-04-08T04:26:33;102582.91;;;7.39;100.00
69318;BME280;56457;52.190;4.440;2023-04-08T04:27:34;102581.97;;;7.37;100.00
69318;BME280;56457;52.190;4.440;2023-04-08T04:28:36;102590.69;;;7.38;100.00
69318;BME280;56457;52.190;4.440;2023-04-08T04:29:36;102580.16;;;7.35;100.00
69318;BME280;56457;52.190;4.440;2023-04-08T04:30:37;102588.69;;;7.31;100.00
69318;BME280;56457;52.190;4.440;2023-04-08T04:31:37;102590.34;;;7.27;100.00
69318;BME280;56457;52.190;4.440;2023-04-08T04:32:38;102599.81;;;7.25;100.00
69318;BME280;56457;52.190;4.440;2023-04-08T04:33:38;102597.16;;;7.23;100.00
69318;BME280;56457;52.190;4.440;2023-04-08T04:34:38;102587.66;;;7.25;100.00
69318;BME280;56457;52.190;4.440;2023-04-08T04:35:39;102594.50;;;7.22;100.00
69318;BME280;56457;52.190;4.440;2023-04-08T04:36:40;102596.16;;;7.20;100.00
69318;BME280;56457;52.190;4.440;2023-04-08T04:37:40;102594.97;;;7.10;100.00
69318;BME280;56457;52.190;4.440;2023-04-08T04:38:41;102596.72;;;7.10;100.00
69318;BME280;56457;52.190;4.440;2023-04-08T04:39:42;102593.13;;;7.08;100.00
69318;BME280;56457;52.190;4.440;2023-04-08T04:40:42;102590.53;;;7.08;100.00
69318;BME280;56457;52.190;4.440;2023-04-08T04:41:43;102596.53;;;7.05;100.00
69318;BME280;56457;52.190;4.440;2023-04-08T04:42:43;102591.31;;;7.05;100.00
69318;BME280;56457;52.190;4.440;2023-04-08T04:43:44;102600.88;;;7.05;100.00
69318;BME280;56457;52.190;4.440;2023-04-08T04:44:44;102598.25;;;7.05;100.00
69318;BME280;56457;52.190;4.440;2023-04-08T04:45:45;102605.31;;;7.07;100.00
69318;BME280;56457;52.190;4.440;2023-04-08T04:46:45;102601.88;;;7.08;100.00
69318;BME280;56457;52.190;4.440;2023-04-08T04:47:46;102604.50;;;7.08;100.00
69318;BME280;56457;52.190;4.440;2023-04-08T04:48:46;102604.53;;;7.10;100.00
69318;BME280;56457;52.190;4.440;2023-04-08T04:49:46;102600.19;;;7.10;100.00
69318;BME280;56457;52.190;4.440;2023-04-08T04:50:56;102608.06;;;7.12;100.00
69318;BME280;56457;52.190;4.440;2023-04-08T04:51:57;102610.91;;;7.18;100.00
69318;BME280;56457;52.190;4.440;2023-04-08T04:52:57;102605.88;;;7.24;100.00
69318;BME280;56457;52.190;4.440;2023-04-08T04:53:58;102604.19;;;7.26;100.00
69318;BME280;56457;52.190;4.440;2023-04-08T04:54:58;102600.56;;;7.21;100.00
69318;BME280;56457;52.190;4.440;2023-04-08T04:55:58;102603.78;;;7.14;100.00
69318;BME280;56457;52.190;4.440;2023-04-08T04:57:00;102603.78;;;7.14;100.00
69318;BME280;56457;52.190;4.440;2023-04-08T04:58:01;102605.50;;;7.13;100.00
69318;BME280;56457;52.190;4.440;2023-04-08T04:59:01;102605.63;;;7.16;100.00
69318;BME280;56457;52.190;4.440;2023-04-08T05:00:02;102603.75;;;7.12;100.00
69318;BME280;56457;52.190;4.440;2023-04-08T05:01:02;102605.25;;;7.06;100.00
69318;BME280;56457;52.190;4.440;2023-04-08T05:02:03;102613.59;;;6.95;100.00
69318;BME280;56457;52.190;4.440;2023-04-08T05:03:03;102620.44;;;6.92;100.00
69318;BME280;56457;52.190;4.440;2023-04-08T05:04:04;102617.88;;;6.93;100.00
69318;BME280;56457;52.190;4.440;2023-04-08T05:05:04;102620.53;;;6.95;100.00
69318;BME280;56457;52.190;4.440;2023-04-08T05:06:05;102616.19;;;6.95;100.00
69318;BME280;56457;52.190;4.440;2023-04-08T05:07:05;102617.00;;;6.93;100.00
69318;BME280;56457;52.190;4.440;2023-04-08T05:08:05;102615.88;;;6.86;100.00
69318;BME280;56457;52.190;4.440;2023-04-08T05:09:06;102615.03;;;6.87;100.00
69318;BME280;56457;52.190;4.440;2023-04-08T05:10:07;102627.13;;;6.84;100.00
69318;BME280;56457;52.190;4.440;2023-04-08T05:11:08;102620.94;;;6.82;100.00
69318;BME280;56457;52.190;4.440;2023-04-08T05:12:08;102622.69;;;6.83;100.00
69318;BME280;56457;52.190;4.440;2023-04-08T05:13:09;102623.63;;;6.83;100.00
69318;BME280;56457;52.190;4.440;2023-04-08T05:14:09;102620.94;;;6.82;100.00
69318;BME280;56457;52.190;4.440;2023-04-08T05:15:10;102623.53;;;6.82;100.00
69318;BME280;56457;52.190;4.440;2023-04-08T05:16:10;102621.72;;;6.79;100.00
69318;BME280;56457;52.190;4.440;2023-04-08T05:17:10;102625.00;;;6.73;100.00
69318;BME280;56457;52.190;4.440;2023-04-08T05:18:11;102630.16;;;6.72;100.00
69318;BME280;56457;52.190;4.440;2023-04-08T05:19:11;102625.66;;;6.68;100.00
69318;BME280;56457;52.190;4.440;2023-04-08T05:20:12;102630.00;;;6.67;100.00
69318;BME280;56457;52.190;4.440;2023-04-08T05:23:00;102626.22;;;6.59;100.00
69318;BME280;56457;52.190;4.440;2023-04-08T05:24:00;102631.59;;;6.64;100.00
69318;BME280;56457;52.190;4.440;2023-04-08T05:25:01;102634.41;;;6.70;100.00
69318;BME280;56457;52.190;4.440;2023-04-08T05:26:01;102632.53;;;6.66;100.00